TFM - Tactical Decision Aid
ID: Runway Winds: CIG/VIS Threshold:

KLAS - Las Vegas/McCarran I, NV, US

Updated at: 1313 UTC 15 Jul 2020
Latest TAF at: 1120 UTC 15 Jul 2020

TAF Board

Time1256Z 15/14Z 15/15Z 15/16Z 15/17Z 15/18Z 15/19Z 15/20Z 15/21Z 15/22Z 15/23Z 16/00Z 16/01Z 16/02Z>>
Type OBS PRVL PRVL PRVL PRVL PRVL PRVL PRVL PRVL PRVL PRVL PRVL PRVL PRVL
VIS 10 >6 >6 >6 >6 >6 >6 >6 >6 >6 >6 >6 >6 >6
CIG -- -- -- -- -- -- -- -- -- -- -- -- -- --
Cover FEW SKC SKC SKC SKC SKC SKC SKC SKC SKC SKC SKC SKC SKC
FltCat VFR VFR VFR VFR VFR VFR VFR VFR VFR VFR VFR VFR VFR VFR
WX -- -- -- -- -- -- -- -- -- -- -- -- -- --
WDir 190 190 190 190 190 110 110 110 110 150 150 150 150 150
WSpd 3 9 9 9 9 8 8 8 8 10 10 10 10 10
WGst -- -- -- -- -- -- -- -- -- 16 16 16 16 16

TDA Impact Legend

  None Marginal Slight Moderate High
Visibility (sm) >5 3≤X≤5 1≤X<3 0.5≤X<1 <0.5
Ceiling (100 ft) >30 10≤X≤30 4≤X<10 2≤X<4 <2
Wind Speed (kt) <15 15≤X<25 25≤X<30 ≥30
Wind Gust (kt) <15 15≤X<25 25≤X<35 ≥35
Weather No Wx Reported VCTS -TS,-FZRA TS,FZRA +TS,+FZRA
TAF
KLAS 151120Z 1512/1618 19009KT P6SM SKC
  FM151800 11008KT P6SM SKC
  FM152200 15010G16KT P6SM SKC
  FM160400 21008KT P6SM SKC
  FM161700 10007KT P6SM SKC


METAR
KLAS 151256Z 19003KT 10SM FEW200 28/M01 A2987 RMK AO2 SLP082 T02781006
KLAS 151156Z 24004KT 10SM FEW200 29/M03 A2984 RMK AO2 SLP072 7//// T02941028 10339 20283 53009
KLAS 151056Z 19006KT 10SM CLR 29/02 A2983 RMK AO2 SLP067 T02890017
KLAS 150956Z 19008KT 10SM CLR 30/01 A2981 RMK AO2 SLP062 T03000006

Radar Display
Forecast Discussion